Time;durP1;ratioP1;P1;durP2;ratioP2;P2;SDS_P1;SDS_P2;PMS_P1;PMS_P2;Temp;Humidity;BMP_temperature;BMP_pressure;BME280_temperature;BME280_humidity;BME280_pressure;Samples;Min_cycle;Max_cycle;Signal;HPM_P1;HPM_P2
2023/03/08 00:01:12;;;;;;;2.17;1.92;;;19.00;44.60;;;;;;4973227;28;20218;-72
2023/03/08 00:03:38;;;;;;;2.05;1.95;;;19.00;44.60;;;;;;4993955;28;20184;-72
2023/03/08 00:06:07;;;;;;;2.17;1.90;;;19.00;44.60;;;;;;4993832;28;20270;-72
2023/03/08 00:08:32;;;;;;;2.10;1.90;;;19.00;44.60;;;;;;4983117;28;20224;-72
2023/03/08 00:10:58;;;;;;;3.85;2.05;;;19.00;44.60;;;;;;4974557;28;20188;-73
2023/03/08 00:13:24;;;;;;;3.15;1.70;;;19.00;44.50;;;;;;4960346;28;20212;-72
2023/03/08 00:15:51;;;;;;;2.70;2.05;;;19.00;44.60;;;;;;4978157;28;20212;-72
2023/03/08 00:18:17;;;;;;;2.10;1.90;;;19.00;44.50;;;;;;4978258;28;20202;-72
2023/03/08 00:20:43;;;;;;;2.08;1.90;;;19.00;45.10;;;;;;4978044;28;20193;-72
2023/03/08 00:23:09;;;;;;;1.85;1.75;;;19.00;44.50;;;;;;4977066;28;20236;-72
2023/03/08 00:25:35;;;;;;;1.80;1.70;;;19.00;44.60;;;;;;4980419;28;20203;-73
2023/03/08 00:28:01;;;;;;;2.00;1.80;;;19.00;44.50;;;;;;4997363;28;20195;-73
2023/03/08 00:30:29;;;;;;;1.98;1.88;;;19.00;44.60;;;;;;4979749;28;20216;-72
2023/03/08 00:32:54;;;;;;;2.30;2.10;;;19.00;44.60;;;;;;5037894;23;20256;-70
2023/03/08 00:35:20;;;;;;;1.83;1.45;;;19.00;44.50;;;;;;5069806;28;20190;-70
2023/03/08 00:37:46;;;;;;;1.85;1.73;;;19.00;44.60;;;;;;5034168;28;20179;-70
2023/03/08 00:40:15;;;;;;;1.90;1.80;;;19.00;44.60;;;;;;5049999;28;20187;-70
2023/03/08 00:42:41;;;;;;;1.95;1.85;;;19.00;44.60;;;;;;5049812;28;20273;-70
2023/03/08 00:45:08;;;;;;;2.00;1.70;;;19.00;44.60;;;;;;5040226;28;20217;-70
2023/03/08 00:47:34;;;;;;;2.00;1.90;;;19.00;44.60;;;;;;5036349;28;20277;-71
2023/03/08 00:50:00;;;;;;;2.10;1.75;;;19.00;44.60;;;;;;5036001;28;20178;-70
2023/03/08 00:52:25;;;;;;;2.00;1.80;;;19.00;44.60;;;;;;5053033;28;20259;-70
2023/03/08 00:54:51;;;;;;;1.65;1.55;;;19.00;44.60;;;;;;5053091;28;20201;-70
2023/03/08 00:57:17;;;;;;;2.03;1.83;;;19.00;44.60;;;;;;5052517;28;20198;-70
2023/03/08 00:59:43;;;;;;;2.20;2.00;;;19.00;44.60;;;;;;5036438;28;20606;-70
2023/03/08 01:02:10;;;;;;;1.60;1.50;;;19.00;44.60;;;;;;5028131;28;20202;-71
2023/03/08 01:04:38;;;;;;;2.47;1.80;;;19.00;44.60;;;;;;5036284;28;20179;-70
2023/03/08 01:07:04;;;;;;;2.15;1.75;;;19.00;44.60;;;;;;5052694;28;20193;-70
2023/03/08 01:09:30;;;;;;;2.20;2.00;;;19.10;44.70;;;;;;5036252;28;20355;-70
2023/03/08 01:11:56;;;;;;;1.58;1.48;;;19.00;44.60;;;;;;5052576;28;20212;-70
2023/03/08 01:14:22;;;;;;;2.92;1.80;;;19.00;44.50;;;;;;5052554;28;20190;-70
2023/03/08 01:16:49;;;;;;;1.95;1.85;;;19.00;44.50;;;;;;5052652;28;20203;-70
2023/03/08 01:19:15;;;;;;;2.25;1.90;;;19.00;44.60;;;;;;5052507;28;20189;-70
2023/03/08 01:21:41;;;;;;;1.80;1.70;;;19.00;44.60;;;;;;5052443;28;20187;-70
2023/03/08 01:24:07;;;;;;;1.80;1.63;;;19.00;44.60;;;;;;5029259;28;20188;-70
2023/03/08 01:26:32;;;;;;;2.10;1.90;;;19.00;44.60;;;;;;5049949;28;20191;-70
2023/03/08 01:28:59;;;;;;;2.33;2.00;;;19.00;44.60;;;;;;5038932;28;20176;-70
2023/03/08 01:31:29;;;;;;;1.80;1.70;;;19.00;44.60;;;;;;5055696;28;20187;-70
2023/03/08 01:33:57;;;;;;;2.00;1.85;;;19.00;44.60;;;;;;5035835;28;20270;-70
2023/03/08 01:36:26;;;;;;;1.90;1.80;;;19.00;44.60;;;;;;5034546;28;20272;-70
2023/03/08 01:38:53;;;;;;;1.90;1.77;;;19.00;44.60;;;;;;5048936;28;20179;-70
2023/03/08 01:41:25;;;;;;;2.75;2.03;;;19.10;44.70;;;;;;5015770;28;20210;-70
2023/03/08 01:43:51;;;;;;;1.95;1.83;;;19.00;44.60;;;;;;5056110;28;20182;-70
2023/03/08 01:46:22;;;;;;;1.70;1.60;;;19.00;44.60;;;;;;5051752;28;20244;-70
2023/03/08 01:49:24;;;;;;;2.28;2.08;;;19.10;44.70;;;;;;5035489;28;20185;-70
2023/03/08 01:52:13;;;;;;;2.25;1.80;;;19.00;44.60;;;;;;5035376;28;20202;-70
2023/03/08 01:54:51;;;;;;;1.75;1.65;;;19.00;44.60;;;;;;5035050;28;20186;-70
2023/03/08 01:57:29;;;;;;;1.73;1.63;;;19.10;44.70;;;;;;5035106;28;20210;-70
2023/03/08 02:00:04;;;;;;;2.13;1.92;;;19.10;44.70;;;;;;5052128;28;20174;-70
2023/03/08 02:03:10;;;;;;;2.00;1.90;;;19.10;44.60;;;;;;5041613;28;20208;-70
2023/03/08 02:05:41;;;;;;;1.90;1.80;;;19.10;44.70;;;;;;5023227;28;20229;-68
2023/03/08 02:08:14;;;;;;;1.70;1.60;;;19.00;44.50;;;;;;5035957;28;20186;-70
2023/03/08 02:10:42;;;;;;;1.60;1.50;;;19.00;44.50;;;;;;5051617;28;20580;-70
2023/03/08 02:13:10;;;;;;;1.85;1.63;;;19.10;44.70;;;;;;5016882;28;20196;-70
2023/03/08 02:15:39;;;;;;;1.95;1.52;;;19.00;44.60;;;;;;5050657;28;20178;-70
2023/03/08 02:18:06;;;;;;;2.22;2.03;;;19.10;44.70;;;;;;5051551;28;20186;-70
2023/03/08 02:20:36;;;;;;;1.58;1.48;;;19.00;44.60;;;;;;5034768;28;20195;-70
2023/03/08 02:23:20;;;;;;;2.00;1.85;;;19.00;44.60;;;;;;5025830;28;20218;-70
2023/03/08 02:26:00;;;;;;;1.88;1.77;;;19.00;44.50;;;;;;5050959;28;20248;-70
2023/03/08 02:28:28;;;;;;;1.70;1.60;;;19.00;44.60;;;;;;5034757;28;20196;-70
2023/03/08 02:30:54;;;;;;;1.70;1.60;;;19.10;44.60;;;;;;5026585;28;20199;-70
2023/03/08 02:33:21;;;;;;;2.30;2.10;;;19.00;44.50;;;;;;5030709;28;20210;-70
2023/03/08 02:35:49;;;;;;;1.92;1.83;;;19.00;44.50;;;;;;5034421;28;20301;-70
2023/03/08 02:38:18;;;;;;;2.30;2.10;;;19.10;44.60;;;;;;5050905;28;20187;-70
2023/03/08 02:40:44;;;;;;;1.77;1.67;;;19.10;44.60;;;;;;5034650;28;20197;-70
2023/03/08 02:43:10;;;;;;;1.92;1.83;;;19.10;44.60;;;;;;5034164;28;20221;-70
2023/03/08 02:45:39;;;;;;;2.10;1.90;;;19.00;44.60;;;;;;5026376;28;20182;-70
2023/03/08 02:48:07;;;;;;;1.88;1.67;;;19.00;44.50;;;;;;5034036;28;20179;-71
2023/03/08 02:50:35;;;;;;;2.05;1.90;;;19.10;44.70;;;;;;5050804;28;20266;-70
2023/03/08 02:53:02;;;;;;;2.28;1.48;;;19.00;44.50;;;;;;5025833;28;20216;-70
2023/03/08 02:55:28;;;;;;;1.85;1.73;;;19.10;44.70;;;;;;5048231;28;20605;-69
2023/03/08 02:57:55;;;;;;;1.75;1.65;;;19.10;44.60;;;;;;5034090;28;20178;-70
2023/03/08 03:00:20;;;;;;;2.25;2.00;;;19.10;44.60;;;;;;5050611;28;20170;-70
2023/03/08 03:02:47;;;;;;;3.55;1.90;;;19.00;44.50;;;;;;5050676;28;20229;-70
2023/03/08 03:05:13;;;;;;;1.88;1.73;;;19.00;44.50;;;;;;5034410;28;20185;-70
2023/03/08 03:07:42;;;;;;;1.77;1.67;;;19.10;44.60;;;;;;5050653;28;20193;-70
2023/03/08 03:10:13;;;;;;;2.40;2.20;;;19.10;44.60;;;;;;5028206;28;20210;-70
2023/03/08 03:12:42;;;;;;;2.13;1.92;;;19.10;44.60;;;;;;5025608;28;20210;-70
2023/03/08 03:15:10;;;;;;;2.60;2.40;;;19.10;44.60;;;;;;5034340;28;20186;-70
2023/03/08 03:17:38;;;;;;;2.10;1.90;;;19.10;44.60;;;;;;5050374;28;20304;-70
2023/03/08 03:20:07;;;;;;;2.20;2.00;;;19.10;45.20;;;;;;5033867;28;20257;-68
2023/03/08 03:22:35;;;;;;;2.40;2.20;;;19.10;44.60;;;;;;5033441;28;20612;-67
2023/03/08 03:25:01;;;;;;;1.83;1.73;;;19.10;44.60;;;;;;5033822;28;20185;-67
2023/03/08 03:27:27;;;;;;;2.30;2.10;;;19.10;44.60;;;;;;5048165;28;20202;-68
2023/03/08 03:29:54;;;;;;;1.90;1.70;;;19.00;44.50;;;;;;5027286;28;20287;-68
2023/03/08 03:32:20;;;;;;;1.67;1.58;;;19.10;44.60;;;;;;5014840;28;20298;-67
2023/03/08 03:34:46;;;;;;;1.95;1.85;;;19.10;44.60;;;;;;5057357;28;20189;-68
2023/03/08 03:37:14;;;;;;;3.20;1.92;;;19.10;44.60;;;;;;5033861;28;20210;-68
2023/03/08 03:39:40;;;;;;;1.75;1.65;;;19.10;44.60;;;;;;5025521;28;20194;-68
2023/03/08 03:42:10;;;;;;;2.30;2.03;;;19.10;44.60;;;;;;5050497;28;20205;-68
2023/03/08 03:44:39;;;;;;;2.03;1.92;;;19.10;44.60;;;;;;5032573;28;20182;-68
2023/03/08 03:47:09;;;;;;;1.85;1.75;;;19.10;44.60;;;;;;5031431;28;20214;-68
2023/03/08 03:49:35;;;;;;;2.33;2.13;;;19.10;44.70;;;;;;5052191;28;20239;-68
2023/03/08 03:52:01;;;;;;;3.33;2.08;;;19.10;44.60;;;;;;5037424;28;20198;-68
2023/03/08 03:54:34;;;;;;;2.40;2.20;;;19.10;44.60;;;;;;5054289;28;20190;-68
2023/03/08 03:57:01;;;;;;;2.58;2.33;;;19.10;44.60;;;;;;5032638;28;20207;-68
2023/03/08 03:59:32;;;;;;;2.83;2.40;;;19.10;44.60;;;;;;5045777;28;20328;-69
2023/03/08 04:01:58;;;;;;;2.50;2.30;;;19.10;44.60;;;;;;5054126;28;20194;-68
2023/03/08 04:04:32;;;;;;;2.20;2.00;;;19.10;44.60;;;;;;5045851;28;20310;-68
2023/03/08 04:06:58;;;;;;;2.28;2.08;;;19.10;44.60;;;;;;5034106;28;20560;-68
2023/03/08 04:09:29;;;;;;;2.30;2.00;;;19.10;44.60;;;;;;5050269;28;20194;-68
2023/03/08 04:12:05;;;;;;;2.03;1.90;;;19.10;45.20;;;;;;5053970;28;20225;-68
2023/03/08 04:14:32;;;;;;;1.80;1.70;;;19.10;44.60;;;;;;5037228;28;20193;-68
2023/03/08 04:16:58;;;;;;;2.42;2.22;;;19.10;44.60;;;;;;5053622;28;20194;-68
2023/03/08 04:19:30;;;;;;;2.13;1.83;;;19.10;44.60;;;;;;5037820;28;20197;-68
2023/03/08 04:21:58;;;;;;;1.90;1.80;;;19.10;44.60;;;;;;5037429;28;20205;-68
2023/03/08 04:24:30;;;;;;;1.98;1.77;;;19.10;44.60;;;;;;5025738;28;20179;-68
2023/03/08 04:27:00;;;;;;;2.60;2.40;;;19.10;44.70;;;;;;5054182;28;20182;-68
2023/03/08 04:29:27;;;;;;;3.13;2.70;;;19.10;44.70;;;;;;5053764;28;20183;-68
2023/03/08 04:31:58;;;;;;;2.40;2.20;;;19.10;44.60;;;;;;5036325;28;20385;-68
2023/03/08 04:34:26;;;;;;;2.67;2.47;;;19.10;44.70;;;;;;5017886;28;20268;-68
2023/03/08 04:36:52;;;;;;;2.92;2.63;;;19.10;44.60;;;;;;5052909;28;20701;-68
2023/03/08 04:39:19;;;;;;;3.10;2.80;;;19.10;44.60;;;;;;5053460;28;20198;-68
2023/03/08 04:41:46;;;;;;;4.50;2.60;;;19.10;44.60;;;;;;5036553;28;20213;-68
2023/03/08 04:44:23;;;;;;;2.20;2.08;;;19.10;44.70;;;;;;5054575;28;20269;-68
2023/03/08 04:46:51;;;;;;;2.42;2.22;;;19.10;44.60;;;;;;5053524;28;20186;-68
2023/03/08 04:49:25;;;;;;;2.28;2.03;;;19.10;44.60;;;;;;5037369;28;20182;-68
2023/03/08 04:51:57;;;;;;;2.40;2.20;;;19.10;44.70;;;;;;5053713;28;20293;-68
2023/03/08 04:54:23;;;;;;;2.88;2.20;;;19.10;44.70;;;;;;5036334;28;20269;-68
2023/03/08 04:56:55;;;;;;;3.03;2.30;;;19.10;44.70;;;;;;5036994;28;20584;-68
2023/03/08 04:59:23;;;;;;;2.47;2.28;;;19.10;44.70;;;;;;5053007;28;20666;-68
2023/03/08 05:01:51;;;;;;;2.60;2.40;;;19.10;44.70;;;;;;5024569;28;20203;-68
2023/03/08 05:04:17;;;;;;;2.40;2.20;;;19.10;44.70;;;;;;5049505;28;20179;-68
2023/03/08 05:06:44;;;;;;;2.60;2.40;;;19.10;44.70;;;;;;5034300;28;20186;-68
2023/03/08 05:09:14;;;;;;;2.45;2.25;;;19.10;45.40;;;;;;5036633;28;20179;-68
2023/03/08 05:11:41;;;;;;;2.60;2.40;;;19.10;44.70;;;;;;5034214;28;20288;-68
2023/03/08 05:14:08;;;;;;;2.67;2.47;;;19.10;44.70;;;;;;5052719;28;20194;-68
2023/03/08 05:16:34;;;;;;;2.90;2.60;;;19.10;44.70;;;;;;5035983;28;20213;-68
2023/03/08 05:19:01;;;;;;;3.28;2.97;;;19.10;44.70;;;;;;5036900;28;20557;-67
2023/03/08 05:21:33;;;;;;;3.28;2.75;;;19.10;44.70;;;;;;5053979;28;20572;-68
2023/03/08 05:24:00;;;;;;;3.08;2.75;;;19.10;44.70;;;;;;5036598;28;20178;-67
2023/03/08 05:26:30;;;;;;;2.38;2.17;;;19.10;44.70;;;;;;5053470;28;20197;-68
2023/03/08 05:29:00;;;;;;;2.50;2.30;;;19.10;44.70;;;;;;5053092;28;20214;-67
2023/03/08 05:31:27;;;;;;;2.58;2.38;;;19.10;44.70;;;;;;5037050;28;20218;-68
2023/03/08 05:33:55;;;;;;;2.45;2.25;;;19.10;44.70;;;;;;5025018;28;20179;-67
2023/03/08 05:36:29;;;;;;;2.60;2.40;;;19.10;44.70;;;;;;5054212;28;20198;-68
2023/03/08 05:38:56;;;;;;;2.75;2.30;;;19.10;44.70;;;;;;5051778;28;20737;-70
2023/03/08 05:41:28;;;;;;;2.67;2.47;;;19.10;44.70;;;;;;5052588;28;20164;-68
2023/03/08 05:43:57;;;;;;;2.78;2.58;;;19.10;44.70;;;;;;5052416;28;20187;-68
2023/03/08 05:46:25;;;;;;;2.75;2.40;;;19.10;44.70;;;;;;5036424;28;20183;-67
2023/03/08 05:48:51;;;;;;;3.35;2.75;;;19.10;44.80;;;;;;5043025;28;20184;-68
2023/03/08 05:51:18;;;;;;;3.30;3.00;;;19.20;45.00;;;;;;5036211;28;20236;-67
2023/03/08 05:53:45;;;;;;;3.05;2.75;;;19.10;44.70;;;;;;5052791;28;20201;-68
2023/03/08 05:56:20;;;;;;;3.70;3.03;;;19.10;44.70;;;;;;5052384;28;20202;-67
2023/03/08 05:58:54;;;;;;;3.90;3.50;;;19.20;44.80;;;;;;5037011;28;20206;-68
2023/03/08 06:01:24;;;;;;;2.90;2.70;;;19.20;44.80;;;;;;5052561;28;20174;-68
2023/03/08 06:03:56;;;;;;;2.80;2.60;;;19.10;44.70;;;;;;5036356;28;20542;-67
2023/03/08 06:06:26;;;;;;;2.88;2.55;;;19.10;44.70;;;;;;5052249;28;20639;-68
2023/03/08 06:08:57;;;;;;;3.58;2.58;;;19.10;44.80;;;;;;5050091;28;20194;-70
2023/03/08 06:11:23;;;;;;;3.45;2.67;;;19.10;44.80;;;;;;5032275;28;20183;-69
2023/03/08 06:13:51;;;;;;;3.20;2.58;;;19.10;44.80;;;;;;5032245;28;20175;-69
2023/03/08 06:16:18;;;;;;;2.88;2.58;;;19.10;44.80;;;;;;5048735;28;20203;-69
2023/03/08 06:18:44;;;;;;;3.33;2.60;;;19.20;44.90;;;;;;5041377;28;20194;-69
2023/03/08 06:21:22;;;;;;;2.97;2.70;;;19.20;44.90;;;;;;5034640;28;20170;-69
2023/03/08 06:23:55;;;;;;;3.22;2.95;;;19.10;44.80;;;;;;5035633;28;20194;-69
2023/03/08 06:26:22;;;;;;;3.35;3.05;;;19.20;44.90;;;;;;5051409;28;20182;-69
2023/03/08 06:28:48;;;;;;;4.13;3.72;;;19.20;44.90;;;;;;5032645;28;20199;-69
2023/03/08 06:31:17;;;;;;;3.85;3.53;;;19.20;44.80;;;;;;5018538;28;20233;-69
2023/03/08 06:33:43;;;;;;;4.57;4.18;;;19.10;44.80;;;;;;5046004;22;20231;-71
2023/03/08 06:36:19;;;;;;;6.13;3.33;;;19.20;44.90;;;;;;5010996;28;20214;-70
2023/03/08 06:38:48;;;;;;;3.55;3.25;;;19.20;44.90;;;;;;5009427;28;20192;-71
2023/03/08 06:41:18;;;;;;;3.97;3.30;;;19.20;44.90;;;;;;4987072;28;20176;-72
2023/03/08 06:43:47;;;;;;;3.00;2.63;;;19.20;44.90;;;;;;5010922;28;20203;-71
2023/03/08 06:46:16;;;;;;;3.17;2.92;;;19.10;44.80;;;;;;4993566;28;20181;-71
2023/03/08 06:48:44;;;;;;;3.45;2.90;;;19.20;44.90;;;;;;4994755;28;20188;-71
2023/03/08 06:51:11;;;;;;;3.13;2.85;;;19.10;44.80;;;;;;5011162;28;20283;-71
2023/03/08 06:53:39;;;;;;;3.45;3.10;;;19.20;44.90;;;;;;5010840;28;20216;-71
2023/03/08 06:56:11;;;;;;;3.33;3.03;;;19.20;44.90;;;;;;5011136;28;20211;-71
2023/03/08 06:58:36;;;;;;;3.03;2.72;;;19.20;44.90;;;;;;5011279;28;20203;-71
2023/03/08 07:01:04;;;;;;;4.00;3.28;;;19.20;44.90;;;;;;4994679;28;20184;-71
2023/03/08 07:03:31;;;;;;;3.88;3.40;;;19.20;44.90;;;;;;5010911;28;20297;-71
2023/03/08 07:06:03;;;;;;;4.00;3.60;;;19.20;44.90;;;;;;5010723;28;20873;-71
2023/03/08 07:08:30;;;;;;;3.97;3.67;;;19.20;44.80;;;;;;5010874;28;20196;-71
2023/03/08 07:10:57;;;;;;;5.70;4.03;;;19.20;45.50;;;;;;4994435;28;20279;-70
2023/03/08 07:13:23;;;;;;;4.20;3.67;;;19.20;44.80;;;;;;5010740;28;20215;-70
2023/03/08 07:15:52;;;;;;;3.80;3.50;;;19.20;44.90;;;;;;5010730;28;20184;-71
2023/03/08 07:18:18;;;;;;;4.78;3.38;;;19.20;44.90;;;;;;5010820;28;20639;-71
2023/03/08 07:20:44;;;;;;;3.30;3.00;;;19.20;44.90;;;;;;4994298;28;20268;-71
2023/03/08 07:23:10;;;;;;;3.88;3.40;;;19.20;44.90;;;;;;5012371;28;20196;-71
2023/03/08 07:25:39;;;;;;;4.50;3.13;;;19.20;44.90;;;;;;5014564;28;20250;-71
2023/03/08 07:28:05;;;;;;;3.50;3.20;;;19.20;44.90;;;;;;5010688;28;20188;-71
2023/03/08 07:30:31;;;;;;;3.30;3.00;;;19.20;44.90;;;;;;4994402;28;20196;-71
2023/03/08 07:32:57;;;;;;;3.40;3.10;;;19.20;45.00;;;;;;5010590;28;20258;-71
2023/03/08 07:35:23;;;;;;;4.43;3.22;;;19.20;45.00;;;;;;4994376;28;20219;-70
2023/03/08 07:37:49;;;;;;;3.30;3.00;;;19.20;45.00;;;;;;5010437;28;20217;-70
2023/03/08 07:40:16;;;;;;;3.25;2.95;;;19.20;45.00;;;;;;5010661;28;20246;-71
2023/03/08 07:42:43;;;;;;;3.67;3.03;;;19.20;45.00;;;;;;5011996;28;20211;-71
2023/03/08 07:45:25;;;;;;;3.50;3.20;;;19.20;45.00;;;;;;5005425;28;20180;-70
2023/03/08 07:47:52;;;;;;;3.20;2.90;;;19.30;45.00;;;;;;5009999;28;20207;-71
2023/03/08 07:50:19;;;;;;;4.03;3.03;;;19.30;45.00;;;;;;4994288;28;20184;-71
2023/03/08 07:52:45;;;;;;;2.97;2.78;;;19.30;45.10;;;;;;5010681;28;20214;-71
2023/03/08 07:55:11;;;;;;;2.72;2.53;;;19.30;45.00;;;;;;5010379;28;20188;-70
2023/03/08 07:57:37;;;;;;;4.05;3.35;;;19.30;45.00;;;;;;5010419;28;20259;-71
2023/03/08 08:00:08;;;;;;;3.13;2.83;;;19.30;45.10;;;;;;5010298;28;20184;-71
2023/03/08 08:02:38;;;;;;;3.75;3.45;;;19.30;45.00;;;;;;5010559;28;20302;-71
2023/03/08 08:05:04;;;;;;;3.67;3.38;;;19.30;45.10;;;;;;4994151;28;20180;-70
2023/03/08 08:07:30;;;;;;;3.25;3.03;;;19.30;45.00;;;;;;4993761;28;20685;-71
2023/03/08 08:09:56;;;;;;;2.72;2.50;;;19.30;45.00;;;;;;5010233;28;20659;-71
2023/03/08 08:12:22;;;;;;;3.25;2.95;;;19.30;45.00;;;;;;5010190;28;20210;-71
2023/03/08 08:14:52;;;;;;;2.67;2.47;;;19.30;45.00;;;;;;5010518;28;20188;-70
2023/03/08 08:17:19;;;;;;;3.15;2.60;;;19.30;45.00;;;;;;5009960;28;20266;-71
2023/03/08 08:19:45;;;;;;;3.13;2.78;;;19.30;45.00;;;;;;5010238;28;20687;-71
2023/03/08 08:22:11;;;;;;;8.00;2.65;;;19.30;45.00;;;;;;5010307;28;20204;-70
2023/03/08 08:24:37;;;;;;;3.22;2.95;;;19.30;45.10;;;;;;5010057;28;20220;-71
2023/03/08 08:27:03;;;;;;;3.00;2.70;;;19.30;45.10;;;;;;5009664;28;20258;-70
2023/03/08 08:29:29;;;;;;;2.92;2.63;;;19.30;45.20;;;;;;5010065;28;20196;-71
2023/03/08 08:31:56;;;;;;;3.47;3.10;;;19.30;45.10;;;;;;5010029;28;20218;-71
2023/03/08 08:34:21;;;;;;;2.75;2.55;;;19.30;45.10;;;;;;5010568;28;20192;-70
2023/03/08 08:36:47;;;;;;;3.28;2.70;;;19.30;45.20;;;;;;5013450;28;20218;-71
2023/03/08 08:39:13;;;;;;;3.53;2.75;;;19.30;45.00;;;;;;5013558;28;20266;-71
2023/03/08 08:41:39;;;;;;;2.60;2.40;;;19.30;45.00;;;;;;5013581;28;20195;-70
2023/03/08 08:44:05;;;;;;;2.80;2.60;;;19.40;45.10;;;;;;5013504;28;20207;-70
2023/03/08 08:46:33;;;;;;;3.50;2.95;;;19.30;45.10;;;;;;4997091;28;20195;-71
2023/03/08 08:49:00;;;;;;;3.10;2.80;;;19.40;45.10;;;;;;5013427;28;20192;-71
2023/03/08 08:51:26;;;;;;;3.15;2.88;;;19.30;45.10;;;;;;5013509;28;20272;-71
2023/03/08 08:53:53;;;;;;;3.20;3.00;;;19.30;45.10;;;;;;4996418;28;20222;-70
2023/03/08 08:56:23;;;;;;;3.53;3.13;;;19.30;45.10;;;;;;5013089;28;20270;-71
2023/03/08 08:58:49;;;;;;;2.97;2.60;;;19.40;45.20;;;;;;5013180;28;20184;-71
2023/03/08 09:01:19;;;;;;;2.70;2.50;;;19.40;45.20;;;;;;5013086;28;20207;-71
2023/03/08 09:03:47;;;;;;;3.28;2.70;;;19.40;45.10;;;;;;5013074;28;20246;-71
2023/03/08 09:06:15;;;;;;;2.85;2.65;;;19.40;45.20;;;;;;5012838;28;20664;-71
2023/03/08 09:08:41;;;;;;;2.67;2.47;;;19.40;45.10;;;;;;4996891;28;20231;-71
2023/03/08 09:11:10;;;;;;;2.60;2.40;;;19.40;45.20;;;;;;4996595;28;20238;-70
2023/03/08 09:13:41;;;;;;;2.67;2.47;;;19.40;45.20;;;;;;4996452;28;20580;-71
2023/03/08 09:16:26;;;;;;;2.50;2.30;;;19.40;45.20;;;;;;4996330;28;20265;-71
2023/03/08 09:18:56;;;;;;;2.28;2.17;;;19.40;45.20;;;;;;4996488;28;20223;-71
2023/03/08 09:21:24;;;;;;;2.20;2.00;;;19.40;45.10;;;;;;5014029;28;20573;-71
2023/03/08 09:23:50;;;;;;;2.40;2.20;;;19.50;45.80;;;;;;5013956;28;20240;-71
2023/03/08 09:26:17;;;;;;;2.50;2.30;;;19.50;45.20;;;;;;5012605;28;20227;-71
2023/03/08 09:28:43;;;;;;;2.53;2.33;;;19.50;45.20;;;;;;4996422;28;20188;-71
2023/03/08 09:31:16;;;;;;;2.80;2.60;;;19.50;45.20;;;;;;5012455;28;20192;-71
2023/03/08 09:33:47;;;;;;;2.40;2.20;;;19.50;45.30;;;;;;5012614;28;20228;-71
2023/03/08 09:36:14;;;;;;;2.25;2.05;;;19.50;45.30;;;;;;5004455;28;20303;-71
2023/03/08 09:38:40;;;;;;;2.50;2.30;;;19.50;45.30;;;;;;4996217;28;20283;-71
2023/03/08 09:41:19;;;;;;;2.38;2.22;;;19.50;45.30;;;;;;5012385;28;20218;-71
2023/03/08 09:44:33;;;;;;;2.50;2.30;;;19.50;45.40;;;;;;4995960;28;20212;-71
2023/03/08 09:47:14;;;;;;;2.40;2.20;;;19.50;45.30;;;;;;5004181;28;20270;-71
2023/03/08 09:49:43;;;;;;;2.78;2.20;;;19.50;45.40;;;;;;4995964;28;20238;-71
2023/03/08 09:52:34;;;;;;;2.47;2.28;;;19.50;45.40;;;;;;4996334;28;20184;-71
2023/03/08 09:55:02;;;;;;;2.80;2.38;;;19.50;45.40;;;;;;5011838;28;20208;-70
2023/03/08 09:57:36;;;;;;;2.10;2.00;;;19.50;45.40;;;;;;5011793;28;20220;-71
2023/03/08 10:00:07;;;;;;;3.00;2.20;;;19.50;45.50;;;;;;5011968;28;20667;-71
2023/03/08 10:03:08;;;;;;;1.95;1.85;;;19.50;45.40;;;;;;5012125;28;20290;-71
2023/03/08 10:05:50;;;;;;;2.08;1.98;;;19.50;45.50;;;;;;5012160;28;20222;-71
2023/03/08 10:08:32;;;;;;;2.30;2.10;;;19.50;45.50;;;;;;4995559;28;20271;-71
2023/03/08 10:11:03;;;;;;;2.20;2.10;;;19.50;45.50;;;;;;5011919;28;20192;-71
2023/03/08 10:13:46;;;;;;;2.00;1.90;;;19.50;45.50;;;;;;5011670;28;20683;-70
2023/03/08 10:16:28;;;;;;;1.90;1.80;;;19.60;45.60;;;;;;4995579;28;20274;-70
2023/03/08 10:19:13;;;;;;;2.30;2.10;;;19.50;45.50;;;;;;4995480;28;20204;-70
2023/03/08 10:21:42;;;;;;;2.13;2.00;;;19.50;45.50;;;;;;5011679;28;20231;-70
2023/03/08 10:24:25;;;;;;;2.38;1.80;;;19.50;45.60;;;;;;5011550;28;20208;-71
2023/03/08 10:27:08;;;;;;;1.63;1.52;;;19.50;45.60;;;;;;4995138;28;20206;-70
2023/03/08 10:29:34;;;;;;;1.90;1.80;;;19.50;45.60;;;;;;4995458;28;20199;-70
2023/03/08 10:32:00;;;;;;;2.10;1.90;;;19.50;45.60;;;;;;5011279;28;20195;-70
2023/03/08 10:34:31;;;;;;;1.95;1.75;;;19.50;45.60;;;;;;5011150;28;20188;-71
2023/03/08 10:37:05;;;;;;;1.95;1.85;;;19.50;45.60;;;;;;4994788;28;20216;-71
2023/03/08 10:39:31;;;;;;;1.80;1.70;;;19.60;45.70;;;;;;5011229;28;20188;-71
2023/03/08 10:42:01;;;;;;;1.58;1.48;;;19.50;45.70;;;;;;5011477;28;20188;-70
2023/03/08 10:44:58;;;;;;;1.85;1.70;;;19.50;45.70;;;;;;5011405;28;20208;-70
2023/03/08 10:48:01;;;;;;;2.17;1.98;;;19.50;45.80;;;;;;5004238;28;20223;-71
2023/03/08 10:50:36;;;;;;;1.92;1.83;;;19.50;45.80;;;;;;4995296;28;20191;-71
2023/03/08 10:53:19;;;;;;;1.55;1.45;;;19.50;45.80;;;;;;4994845;28;20270;-71
2023/03/08 10:55:50;;;;;;;1.73;1.63;;;19.50;45.80;;;;;;4994307;28;20670;-70
2023/03/08 10:58:37;;;;;;;1.60;1.50;;;19.50;45.90;;;;;;4994682;28;20447;-70
2023/03/08 11:01:23;;;;;;;2.30;1.80;;;19.50;45.90;;;;;;4986847;28;20203;-71
2023/03/08 11:04:03;;;;;;;1.50;1.40;;;19.50;45.90;;;;;;5011028;28;20242;-70
2023/03/08 11:06:29;;;;;;;1.80;1.70;;;19.50;46.00;;;;;;5011366;28;20214;-71
2023/03/08 11:09:03;;;;;;;1.60;1.50;;;19.50;45.90;;;;;;4994709;28;20663;-71
2023/03/08 11:11:41;;;;;;;1.50;1.40;;;19.50;46.00;;;;;;5010736;28;20664;-71
2023/03/08 11:14:10;;;;;;;1.70;1.60;;;19.60;46.10;;;;;;5013329;28;20274;-70
2023/03/08 11:17:25;;;;;;;1.63;1.52;;;19.50;46.00;;;;;;5010904;28;20647;-71
2023/03/08 11:20:09;;;;;;;1.65;1.55;;;19.60;46.20;;;;;;4994729;28;20207;-71
2023/03/08 11:23:14;;;;;;;1.40;1.30;;;19.60;46.20;;;;;;4994373;28;20208;-71
2023/03/08 11:26:08;;;;;;;1.67;1.52;;;19.50;46.10;;;;;;5005998;28;20195;-71
2023/03/08 11:28:53;;;;;;;1.50;1.40;;;19.60;46.20;;;;;;5010695;28;20319;-71
2023/03/08 11:31:25;;;;;;;1.63;1.40;;;19.60;46.20;;;;;;5002827;28;20253;-71
2023/03/08 11:34:06;;;;;;;1.58;1.48;;;19.60;46.20;;;;;;4994503;28;20230;-70
2023/03/08 11:36:37;;;;;;;1.50;1.40;;;19.60;46.20;;;;;;4994197;28;20222;-71
2023/03/08 11:39:32;;;;;;;1.70;1.60;;;19.60;46.20;;;;;;4994288;28;20192;-71
2023/03/08 11:42:40;;;;;;;1.50;1.40;;;19.60;46.20;;;;;;5010503;28;20224;-70
2023/03/08 11:45:15;;;;;;;1.40;1.30;;;19.60;46.20;;;;;;5011022;28;20192;-72
2023/03/08 11:48:14;;;;;;;1.27;1.23;;;19.60;46.20;;;;;;5016888;28;20289;-71
2023/03/08 11:51:28;;;;;;;1.50;1.40;;;19.60;46.20;;;;;;5016501;28;20290;-72
2023/03/08 11:54:15;;;;;;;1.35;1.20;;;19.70;46.20;;;;;;5010393;28;20215;-71
2023/03/08 11:57:09;;;;;;;1.40;1.30;;;19.70;46.30;;;;;;5012763;28;20243;-71
2023/03/08 11:59:59;;;;;;;1.27;1.17;;;19.70;46.30;;;;;;5021431;28;20270;-71
2023/03/08 12:02:37;;;;;;;1.30;1.20;;;19.70;46.30;;;;;;5011331;28;20208;-72
2023/03/08 12:05:24;;;;;;;1.00;1.00;;;19.70;46.30;;;;;;5010954;28;20279;-71
2023/03/08 12:08:12;;;;;;;1.30;1.30;;;19.70;46.20;;;;;;5011116;28;20192;-72
2023/03/08 12:11:07;;;;;;;2.05;1.45;;;19.70;46.20;;;;;;5013502;28;20191;-71
2023/03/08 12:13:40;;;;;;;1.40;1.30;;;19.70;46.20;;;;;;5014427;28;20240;-72
2023/03/08 12:17:02;;;;;;;1.20;1.20;;;19.70;46.30;;;;;;5014485;28;20261;-71
2023/03/08 12:19:44;;;;;;;1.33;1.23;;;19.70;46.30;;;;;;4948198;28;20217;-71
2023/03/08 12:22:29;;;;;;;1.13;1.02;;;19.70;46.30;;;;;;4993393;28;20216;-71
2023/03/08 12:25:08;;;;;;;1.38;1.27;;;19.60;46.30;;;;;;5023649;28;20250;-72
2023/03/08 12:27:52;;;;;;;1.08;1.08;;;19.70;46.40;;;;;;5009251;28;20191;-70
2023/03/08 12:30:37;;;;;;;1.40;1.30;;;19.70;46.40;;;;;;5013683;28;20184;-71
2023/03/08 12:33:05;;;;;;;1.20;1.10;;;19.70;46.50;;;;;;5007621;28;20234;-71
2023/03/08 12:35:47;;;;;;;1.25;1.20;;;19.70;46.50;;;;;;5013887;28;20191;-71
2023/03/08 12:38:16;;;;;;;1.27;1.20;;;19.70;46.60;;;;;;5027912;22;20227;-71
2023/03/08 12:40:46;;;;;;;1.15;1.05;;;19.70;46.60;;;;;;5017818;28;20278;-71
2023/03/08 12:43:28;;;;;;;1.23;1.10;;;19.60;46.50;;;;;;5032690;28;20187;-72
2023/03/08 12:46:10;;;;;;;1.40;1.30;;;19.60;46.60;;;;;;5017274;28;20544;-72
2023/03/08 12:48:48;;;;;;;1.10;1.10;;;19.70;46.70;;;;;;5033365;28;20629;-71
2023/03/08 12:51:15;;;;;;;1.20;1.10;;;19.70;46.70;;;;;;5016016;28;20284;-72
2023/03/08 12:53:50;;;;;;;0.90;0.90;;;19.60;46.60;;;;;;5033028;28;20194;-72
2023/03/08 12:56:51;;;;;;;1.05;1.00;;;19.70;46.70;;;;;;5032927;28;20261;-71
2023/03/08 12:59:17;;;;;;;1.83;1.17;;;19.70;46.70;;;;;;5033046;28;20206;-71
2023/03/08 13:01:54;;;;;;;0.90;0.90;;;19.70;46.80;;;;;;5033178;28;20578;-72
2023/03/08 13:04:32;;;;;;;1.27;1.17;;;19.70;46.80;;;;;;5032813;28;20282;-71
2023/03/08 13:07:24;;;;;;;0.95;0.95;;;19.70;46.70;;;;;;5032733;28;20694;-71
2023/03/08 13:10:18;;;;;;;1.23;1.10;;;19.70;46.80;;;;;;5032678;28;20191;-71
2023/03/08 13:13:09;;;;;;;0.90;0.90;;;19.70;46.80;;;;;;5032771;28;20222;-71